sensor_id;sensor_type;location;lat;lon;timestamp;pressure;altitude;pressure_sealevel;temperature;humidity
58295;BME280;45705;55.592;37.460;2023-03-26T00:00:26;97744.72;;;7.80;100.00
58295;BME280;45705;55.592;37.460;2023-03-26T00:02:52;97747.31;;;7.68;100.00
58295;BME280;45705;55.592;37.460;2023-03-26T00:05:17;97734.53;;;7.77;100.00
58295;BME280;45705;55.592;37.460;2023-03-26T00:07:44;97738.00;;;7.86;100.00
58295;BME280;45705;55.592;37.460;2023-03-26T00:10:10;97738.50;;;7.80;100.00
58295;BME280;45705;55.592;37.460;2023-03-26T00:12:35;97738.84;;;7.78;100.00
58295;BME280;45705;55.592;37.460;2023-03-26T00:15:01;97742.06;;;7.63;100.00
58295;BME280;45705;55.592;37.460;2023-03-26T00:17:28;97747.69;;;7.40;100.00
58295;BME280;45705;55.592;37.460;2023-03-26T00:19:54;97757.59;;;7.19;100.00
58295;BME280;45705;55.592;37.460;2023-03-26T00:22:21;97753.28;;;7.35;100.00
58295;BME280;45705;55.592;37.460;2023-03-26T00:24:47;97741.91;;;7.59;100.00
58295;BME280;45705;55.592;37.460;2023-03-26T00:27:15;97735.59;;;7.46;100.00
58295;BME280;45705;55.592;37.460;2023-03-26T00:29:41;97736.81;;;7.58;100.00
58295;BME280;45705;55.592;37.460;2023-03-26T00:32:07;97734.03;;;7.28;100.00
58295;BME280;45705;55.592;37.460;2023-03-26T00:34:32;97737.88;;;7.27;100.00
58295;BME280;45705;55.592;37.460;2023-03-26T00:36:58;97734.97;;;7.32;100.00
58295;BME280;45705;55.592;37.460;2023-03-26T00:39:27;97727.81;;;7.45;100.00
58295;BME280;45705;55.592;37.460;2023-03-26T00:41:53;97723.34;;;7.40;100.00
58295;BME280;45705;55.592;37.460;2023-03-26T00:44:19;97725.16;;;7.01;100.00
58295;BME280;45705;55.592;37.460;2023-03-26T00:46:47;97722.47;;;7.10;100.00
58295;BME280;45705;55.592;37.460;2023-03-26T00:49:12;97713.66;;;7.39;100.00
58295;BME280;45705;55.592;37.460;2023-03-26T00:51:41;97708.72;;;7.41;100.00
58295;BME280;45705;55.592;37.460;2023-03-26T00:54:07;97698.72;;;7.33;100.00
58295;BME280;45705;55.592;37.460;2023-03-26T00:56:33;97701.03;;;6.96;100.00
58295;BME280;45705;55.592;37.460;2023-03-26T00:58:59;97697.84;;;7.03;100.00
58295;BME280;45705;55.592;37.460;2023-03-26T01:01:25;97699.44;;;6.95;100.00
58295;BME280;45705;55.592;37.460;2023-03-26T01:03:52;97704.06;;;6.95;100.00
58295;BME280;45705;55.592;37.460;2023-03-26T01:06:24;97702.25;;;7.07;100.00
58295;BME280;45705;55.592;37.460;2023-03-26T01:08:58;97706.88;;;7.16;100.00
58295;BME280;45705;55.592;37.460;2023-03-26T01:11:29;97705.19;;;6.85;100.00
58295;BME280;45705;55.592;37.460;2023-03-26T01:16:43;97710.25;;;6.95;100.00
58295;BME280;45705;55.592;37.460;2023-03-26T01:21:50;97704.03;;;7.03;100.00
58295;BME280;45705;55.592;37.460;2023-03-26T01:24:15;97711.53;;;6.89;100.00
58295;BME280;45705;55.592;37.460;2023-03-26T01:29:18;97707.06;;;6.93;100.00
58295;BME280;45705;55.592;37.460;2023-03-26T01:31:48;97703.28;;;6.77;100.00
58295;BME280;45705;55.592;37.460;2023-03-26T01:37:10;97698.19;;;6.66;100.00
58295;BME280;45705;55.592;37.460;2023-03-26T01:40:25;97697.69;;;6.64;100.00
58295;BME280;45705;55.592;37.460;2023-03-26T01:42:41;97695.31;;;6.72;100.00
58295;BME280;45705;55.592;37.460;2023-03-26T01:45:09;97700.59;;;6.59;100.00
58295;BME280;45705;55.592;37.460;2023-03-26T01:47:36;97691.19;;;6.65;100.00
58295;BME280;45705;55.592;37.460;2023-03-26T01:50:02;97696.28;;;6.58;100.00
58295;BME280;45705;55.592;37.460;2023-03-26T01:52:28;97695.19;;;6.59;100.00
58295;BME280;45705;55.592;37.460;2023-03-26T01:54:53;97685.94;;;6.60;100.00
58295;BME280;45705;55.592;37.460;2023-03-26T02:05:11;97666.25;;;6.51;100.00
58295;BME280;45705;55.592;37.460;2023-03-26T02:07:41;97661.66;;;6.60;100.00
58295;BME280;45705;55.592;37.460;2023-03-26T02:10:19;97658.81;;;6.48;100.00
58295;BME280;45705;55.592;37.460;2023-03-26T02:12:47;97652.13;;;6.37;100.00
58295;BME280;45705;55.592;37.460;2023-03-26T02:15:13;97649.72;;;6.18;100.00
58295;BME280;45705;55.592;37.460;2023-03-26T02:17:38;97651.78;;;6.12;100.00
58295;BME280;45705;55.592;37.460;2023-03-26T02:20:08;97661.31;;;6.09;100.00
58295;BME280;45705;55.592;37.460;2023-03-26T02:22:35;97666.22;;;6.16;100.00
58295;BME280;45705;55.592;37.460;2023-03-26T02:25:07;97661.47;;;6.22;100.00
58295;BME280;45705;55.592;37.460;2023-03-26T02:27:33;97661.66;;;6.17;100.00
58295;BME280;45705;55.592;37.460;2023-03-26T02:29:58;97663.69;;;6.20;100.00
58295;BME280;45705;55.592;37.460;2023-03-26T02:32:25;97657.38;;;6.42;100.00
58295;BME280;45705;55.592;37.460;2023-03-26T02:34:50;97661.81;;;6.46;100.00
58295;BME280;45705;55.592;37.460;2023-03-26T02:37:16;97662.59;;;6.47;100.00
58295;BME280;45705;55.592;37.460;2023-03-26T02:39:44;97652.13;;;6.54;100.00
58295;BME280;45705;55.592;37.460;2023-03-26T02:42:20;97657.53;;;6.54;100.00
58295;BME280;45705;55.592;37.460;2023-03-26T02:44:48;97651.50;;;6.57;100.00
58295;BME280;45705;55.592;37.460;2023-03-26T02:47:16;97650.22;;;6.46;100.00
58295;BME280;45705;55.592;37.460;2023-03-26T02:49:51;97649.56;;;6.66;100.00
58295;BME280;45705;55.592;37.460;2023-03-26T02:52:25;97649.91;;;6.56;100.00
58295;BME280;45705;55.592;37.460;2023-03-26T02:54:53;97643.56;;;6.35;100.00
58295;BME280;45705;55.592;37.460;2023-03-26T02:57:21;97647.50;;;6.20;100.00
58295;BME280;45705;55.592;37.460;2023-03-26T03:00:13;97647.06;;;6.44;100.00
58295;BME280;45705;55.592;37.460;2023-03-26T03:03:01;97639.72;;;6.53;100.00
58295;BME280;45705;55.592;37.460;2023-03-26T03:05:29;97639.91;;;6.30;100.00
58295;BME280;45705;55.592;37.460;2023-03-26T03:08:13;97644.03;;;6.19;100.00
58295;BME280;45705;55.592;37.460;2023-03-26T03:10:58;97633.53;;;6.18;100.00
58295;BME280;45705;55.592;37.460;2023-03-26T03:13:36;97637.03;;;6.27;100.00
58295;BME280;45705;55.592;37.460;2023-03-26T03:16:02;97637.50;;;6.20;100.00
58295;BME280;45705;55.592;37.460;2023-03-26T03:18:28;97639.72;;;6.36;100.00
58295;BME280;45705;55.592;37.460;2023-03-26T03:20:54;97637.81;;;6.45;100.00
58295;BME280;45705;55.592;37.460;2023-03-26T03:23:19;97624.00;;;6.38;100.00
58295;BME280;45705;55.592;37.460;2023-03-26T03:25:47;97624.31;;;6.45;100.00
58295;BME280;45705;55.592;37.460;2023-03-26T03:28:15;97622.59;;;6.31;100.00
58295;BME280;45705;55.592;37.460;2023-03-26T03:30:42;97618.78;;;6.33;100.00
58295;BME280;45705;55.592;37.460;2023-03-26T03:33:34;97614.47;;;6.31;100.00
58295;BME280;45705;55.592;37.460;2023-03-26T03:36:00;97601.31;;;6.21;100.00
58295;BME280;45705;55.592;37.460;2023-03-26T03:38:26;97598.94;;;6.20;100.00
58295;BME280;45705;55.592;37.460;2023-03-26T03:40:53;97599.25;;;6.44;100.00
58295;BME280;45705;55.592;37.460;2023-03-26T03:43:22;97610.69;;;6.50;100.00
58295;BME280;45705;55.592;37.460;2023-03-26T03:46:08;97602.56;;;6.50;100.00
58295;BME280;45705;55.592;37.460;2023-03-26T03:48:42;97597.34;;;6.45;100.00
58295;BME280;45705;55.592;37.460;2023-03-26T03:51:14;97595.75;;;6.44;100.00
58295;BME280;45705;55.592;37.460;2023-03-26T03:53:49;97593.53;;;6.46;100.00
58295;BME280;45705;55.592;37.460;2023-03-26T03:56:25;97602.56;;;6.50;100.00
58295;BME280;45705;55.592;37.460;2023-03-26T03:59:13;97594.28;;;6.55;100.00
58295;BME280;45705;55.592;37.460;2023-03-26T04:01:41;97593.81;;;6.53;100.00
58295;BME280;45705;55.592;37.460;2023-03-26T04:04:40;97591.44;;;6.60;100.00
58295;BME280;45705;55.592;37.460;2023-03-26T04:07:09;97593.03;;;6.61;100.00
58295;BME280;45705;55.592;37.460;2023-03-26T04:10:04;97584.75;;;6.66;100.00
58295;BME280;45705;55.592;37.460;2023-03-26T04:12:56;97577.13;;;6.68;100.00
58295;BME280;45705;55.592;37.460;2023-03-26T04:15:38;97579.34;;;6.66;100.00
58295;BME280;45705;55.592;37.460;2023-03-26T04:18:04;97577.28;;;6.72;100.00
58295;BME280;45705;55.592;37.460;2023-03-26T04:20:38;97575.19;;;6.78;100.00
58295;BME280;45705;55.592;37.460;2023-03-26T04:23:07;97572.03;;;6.76;100.00
58295;BME280;45705;55.592;37.460;2023-03-26T04:25:41;97566.13;;;6.82;100.00
58295;BME280;45705;55.592;37.460;2023-03-26T04:28:23;97560.13;;;6.77;100.00
58295;BME280;45705;55.592;37.460;2023-03-26T04:30:58;97563.91;;;6.76;100.00
58295;BME280;45705;55.592;37.460;2023-03-26T04:33:34;97560.28;;;6.72;100.00
58295;BME280;45705;55.592;37.460;2023-03-26T04:36:00;97558.25;;;6.60;100.00
58295;BME280;45705;55.592;37.460;2023-03-26T04:38:29;97550.94;;;6.60;100.00
58295;BME280;45705;55.592;37.460;2023-03-26T04:41:01;97557.47;;;6.59;100.00
58295;BME280;45705;55.592;37.460;2023-03-26T04:43:47;97543.63;;;6.61;100.00
58295;BME280;45705;55.592;37.460;2023-03-26T04:46:32;97546.94;;;6.66;100.00
58295;BME280;45705;55.592;37.460;2023-03-26T04:49:15;97537.88;;;6.71;100.00
58295;BME280;45705;55.592;37.460;2023-03-26T04:51:41;97541.38;;;6.72;100.00
58295;BME280;45705;55.592;37.460;2023-03-26T04:54:20;97528.50;;;6.77;100.00
58295;BME280;45705;55.592;37.460;2023-03-26T04:56:59;97538.16;;;6.78;100.00
58295;BME280;45705;55.592;37.460;2023-03-26T04:59:36;97531.16;;;6.86;100.00
58295;BME280;45705;55.592;37.460;2023-03-26T05:02:05;97527.44;;;6.99;100.00
58295;BME280;45705;55.592;37.460;2023-03-26T05:04:44;97524.63;;;6.87;100.00
58295;BME280;45705;55.592;37.460;2023-03-26T05:07:10;97520.81;;;6.88;100.00
58295;BME280;45705;55.592;37.460;2023-03-26T05:09:45;97525.22;;;7.01;100.00
58295;BME280;45705;55.592;37.460;2023-03-26T05:12:14;97522.72;;;6.96;100.00
58295;BME280;45705;55.592;37.460;2023-03-26T05:14:49;97525.69;;;7.03;100.00
58295;BME280;45705;55.592;37.460;2023-03-26T05:17:22;97532.31;;;7.15;100.00
58295;BME280;45705;55.592;37.460;2023-03-26T05:19:49;97535.00;;;7.15;100.00
58295;BME280;45705;55.592;37.460;2023-03-26T05:22:19;97524.09;;;7.02;100.00
58295;BME280;45705;55.592;37.460;2023-03-26T05:25:10;97528.75;;;6.93;100.00
58295;BME280;45705;55.592;37.460;2023-03-26T05:27:37;97528.75;;;6.93;100.00
58295;BME280;45705;55.592;37.460;2023-03-26T05:30:03;97540.19;;;6.90;100.00
58295;BME280;45705;55.592;37.460;2023-03-26T05:32:34;97524.94;;;6.94;100.00
58295;BME280;45705;55.592;37.460;2023-03-26T05:35:00;97527.44;;;6.99;100.00
58295;BME280;45705;55.592;37.460;2023-03-26T05:37:29;97525.72;;;6.95;100.00
58295;BME280;45705;55.592;37.460;2023-03-26T05:40:01;97528.63;;;6.81;100.00
58295;BME280;45705;55.592;37.460;2023-03-26T05:45:46;97524.53;;;6.75;100.00
58295;BME280;45705;55.592;37.460;2023-03-26T05:48:17;97517.63;;;6.86;100.00
58295;BME280;45705;55.592;37.460;2023-03-26T05:50:46;97510.66;;;6.85;100.00
58295;BME280;45705;55.592;37.460;2023-03-26T05:53:11;97509.22;;;6.87;100.00
58295;BME280;45705;55.592;37.460;2023-03-26T05:55:57;97506.97;;;6.89;100.00
58295;BME280;45705;55.592;37.460;2023-03-26T05:58:34;97498.41;;;6.87;100.00
58295;BME280;45705;55.592;37.460;2023-03-26T06:01:19;97492.22;;;6.87;100.00
58295;BME280;45705;55.592;37.460;2023-03-26T06:04:03;97493.44;;;6.98;100.00
58295;BME280;45705;55.592;37.460;2023-03-26T06:06:34;97483.94;;;6.92;100.00
58295;BME280;45705;55.592;37.460;2023-03-26T06:08:59;97485.00;;;7.00;100.00
58295;BME280;45705;55.592;37.460;2023-03-26T06:11:26;97483.00;;;6.88;100.00
58295;BME280;45705;55.592;37.460;2023-03-26T06:13:51;97476.00;;;6.87;100.00
58295;BME280;45705;55.592;37.460;2023-03-26T06:16:17;97472.94;;;6.97;100.00
58295;BME280;45705;55.592;37.460;2023-03-26T06:18:47;97478.03;;;6.99;100.00
58295;BME280;45705;55.592;37.460;2023-03-26T06:21:26;97471.69;;;6.95;100.00
58295;BME280;45705;55.592;37.460;2023-03-26T06:24:00;97470.75;;;6.90;100.00
58295;BME280;45705;55.592;37.460;2023-03-26T06:26:41;97472.31;;;6.92;100.00
58295;BME280;45705;55.592;37.460;2023-03-26T06:29:39;97469.06;;;7.07;100.00
58295;BME280;45705;55.592;37.460;2023-03-26T06:32:10;97454.03;;;6.97;100.00
58295;BME280;45705;55.592;37.460;2023-03-26T06:34:43;97453.00;;;7.10;100.00
58295;BME280;45705;55.592;37.460;2023-03-26T06:37:09;97445.63;;;7.20;100.00
58295;BME280;45705;55.592;37.460;2023-03-26T06:39:35;97445.91;;;7.27;100.00
58295;BME280;45705;55.592;37.460;2023-03-26T06:42:23;97439.72;;;7.47;100.00
58295;BME280;45705;55.592;37.460;2023-03-26T06:45:05;97433.66;;;7.51;100.00
58295;BME280;45705;55.592;37.460;2023-03-26T06:47:33;97434.31;;;7.47;100.00
58295;BME280;45705;55.592;37.460;2023-03-26T06:50:24;97435.63;;;7.41;100.00
58295;BME280;45705;55.592;37.460;2023-03-26T06:53:22;97425.09;;;7.48;100.00
58295;BME280;45705;55.592;37.460;2023-03-26T06:56:13;97434.25;;;7.35;100.00
58295;BME280;45705;55.592;37.460;2023-03-26T06:58:59;97422.63;;;7.35;100.00
58295;BME280;45705;55.592;37.460;2023-03-26T07:01:43;97429.16;;;7.34;100.00
58295;BME280;45705;55.592;37.460;2023-03-26T07:04:44;97414.78;;;7.21;100.00
58295;BME280;45705;55.592;37.460;2023-03-26T07:07:28;97414.41;;;7.31;100.00
58295;BME280;45705;55.592;37.460;2023-03-26T07:10:20;97407.06;;;7.10;100.00
58295;BME280;45705;55.592;37.460;2023-03-26T07:13:00;97401.50;;;7.07;100.00
58295;BME280;45705;55.592;37.460;2023-03-26T07:15:32;97399.81;;;7.02;100.00
58295;BME280;45705;55.592;37.460;2023-03-26T07:18:23;97389.91;;;7.06;100.00
58295;BME280;45705;55.592;37.460;2023-03-26T07:20:50;97395.72;;;6.96;100.00
58295;BME280;45705;55.592;37.460;2023-03-26T07:23:18;97394.44;;;6.94;100.00
58295;BME280;45705;55.592;37.460;2023-03-26T07:35:09;97382.84;;;6.93;100.00
58295;BME280;45705;55.592;37.460;2023-03-26T07:41:14;97376.13;;;6.99;100.00
58295;BME280;45705;55.592;37.460;2023-03-26T07:46:34;97381.94;;;7.10;100.00
58295;BME280;45705;55.592;37.460;2023-03-26T07:49:19;97384.56;;;7.19;100.00
58295;BME280;45705;55.592;37.460;2023-03-26T07:52:01;97385.56;;;7.14;100.00
58295;BME280;45705;55.592;37.460;2023-03-26T07:54:46;97396.56;;;7.09;100.00
58295;BME280;45705;55.592;37.460;2023-03-26T08:00:34;97384.97;;;7.08;100.00
58295;BME280;45705;55.592;37.460;2023-03-26T08:11:56;97367.72;;;7.22;100.00
58295;BME280;45705;55.592;37.460;2023-03-26T08:22:12;97356.41;;;6.78;100.00
58295;BME280;45705;55.592;37.460;2023-03-26T08:27:27;97355.47;;;6.74;100.00
58295;BME280;45705;55.592;37.460;2023-03-26T08:30:04;97345.56;;;6.86;100.00
58295;BME280;45705;55.592;37.460;2023-03-26T08:32:32;97343.91;;;6.94;100.00
58295;BME280;45705;55.592;37.460;2023-03-26T08:34:58;97333.69;;;6.79;100.00
58295;BME280;45705;55.592;37.460;2023-03-26T08:37:24;97338.69;;;6.89;100.00
58295;BME280;45705;55.592;37.460;2023-03-26T08:39:51;97336.03;;;6.80;100.00
58295;BME280;45705;55.592;37.460;2023-03-26T09:06:29;97314.50;;;6.72;100.00
58295;BME280;45705;55.592;37.460;2023-03-26T09:19:48;97302.19;;;6.83;100.00
58295;BME280;45705;55.592;37.460;2023-03-26T09:30:27;97292.19;;;6.83;100.00
58295;BME280;45705;55.592;37.460;2023-03-26T09:38:10;97274.13;;;6.96;100.00
58295;BME280;45705;55.592;37.460;2023-03-26T09:41:12;97274.59;;;6.98;100.00
58295;BME280;45705;55.592;37.460;2023-03-26T09:54:09;97280.97;;;7.15;100.00
58295;BME280;45705;55.592;37.460;2023-03-26T09:56:45;97276.72;;;7.26;100.00
58295;BME280;45705;55.592;37.460;2023-03-26T10:06:51;97270.00;;;7.11;100.00
58295;BME280;45705;55.592;37.460;2023-03-26T10:14:38;97259.69;;;7.46;100.00
58295;BME280;45705;55.592;37.460;2023-03-26T10:35:41;97243.34;;;7.43;100.00
58295;BME280;45705;55.592;37.460;2023-03-26T10:41:13;97241.09;;;7.45;100.00
58295;BME280;45705;55.592;37.460;2023-03-26T10:46:23;97239.88;;;7.55;100.00
58295;BME280;45705;55.592;37.460;2023-03-26T10:49:16;97236.06;;;7.68;100.00
58295;BME280;45705;55.592;37.460;2023-03-26T10:51:59;97242.13;;;7.53;100.00
58295;BME280;45705;55.592;37.460;2023-03-26T10:56:57;97238.06;;;7.46;100.00
58295;BME280;45705;55.592;37.460;2023-03-26T10:59:25;97235.91;;;7.52;100.00
58295;BME280;45705;55.592;37.460;2023-03-26T11:04:23;97229.50;;;7.44;100.00
58295;BME280;45705;55.592;37.460;2023-03-26T11:16:59;97225.00;;;7.48;100.00
58295;BME280;45705;55.592;37.460;2023-03-26T11:25:06;97226.88;;;7.48;100.00
58295;BME280;45705;55.592;37.460;2023-03-26T11:33:10;97224.53;;;7.46;100.00
58295;BME280;45705;55.592;37.460;2023-03-26T11:35:39;97226.19;;;7.39;100.00
58295;BME280;45705;55.592;37.460;2023-03-26T11:38:22;97231.97;;;7.49;100.00
58295;BME280;45705;55.592;37.460;2023-03-26T11:40:54;97234.84;;;7.32;100.00
58295;BME280;45705;55.592;37.460;2023-03-26T11:43:41;97223.69;;;7.34;100.00
58295;BME280;45705;55.592;37.460;2023-03-26T11:46:11;97231.88;;;7.25;100.00
58295;BME280;45705;55.592;37.460;2023-03-26T11:48:39;97233.22;;;7.19;100.00
58295;BME280;45705;55.592;37.460;2023-03-26T11:51:11;97227.63;;;7.24;100.00
58295;BME280;45705;55.592;37.460;2023-03-26T11:53:39;97226.06;;;7.35;100.00
58295;BME280;45705;55.592;37.460;2023-03-26T11:56:08;97226.06;;;7.35;100.00
58295;BME280;45705;55.592;37.460;2023-03-26T12:01:11;97231.72;;;7.42;100.00
58295;BME280;45705;55.592;37.460;2023-03-26T12:03:37;97222.94;;;7.45;100.00
58295;BME280;45705;55.592;37.460;2023-03-26T12:06:04;97222.94;;;7.58;100.00
58295;BME280;45705;55.592;37.460;2023-03-26T12:08:34;97222.25;;;7.36;100.00
58295;BME280;45705;55.592;37.460;2023-03-26T12:11:07;97217.31;;;7.51;100.00
58295;BME280;45705;55.592;37.460;2023-03-26T12:13:47;97207.69;;;7.28;100.00
58295;BME280;45705;55.592;37.460;2023-03-26T12:16:17;97210.44;;;7.53;100.00
58295;BME280;45705;55.592;37.460;2023-03-26T12:18:43;97205.47;;;7.43;100.00
58295;BME280;45705;55.592;37.460;2023-03-26T12:23:36;97207.84;;;7.44;100.00
58295;BME280;45705;55.592;37.460;2023-03-26T12:26:04;97194.53;;;7.39;100.00
58295;BME280;45705;55.592;37.460;2023-03-26T12:28:36;97204.97;;;7.28;100.00
58295;BME280;45705;55.592;37.460;2023-03-26T12:31:02;97198.00;;;7.27;100.00
58295;BME280;45705;55.592;37.460;2023-03-26T12:33:29;97201.50;;;7.40;100.00
58295;BME280;45705;55.592;37.460;2023-03-26T12:35:58;97192.41;;;7.57;100.00
58295;BME280;45705;55.592;37.460;2023-03-26T12:43:36;97197.03;;;7.44;100.00
58295;BME280;45705;55.592;37.460;2023-03-26T12:46:02;97200.38;;;7.29;100.00
58295;BME280;45705;55.592;37.460;2023-03-26T12:48:28;97194.84;;;7.25;100.00
58295;BME280;45705;55.592;37.460;2023-03-26T12:56:19;97190.22;;;7.26;100.00
58295;BME280;45705;55.592;37.460;2023-03-26T13:17:02;97186.06;;;7.28;100.00
58295;BME280;45705;55.592;37.460;2023-03-26T13:27:20;97195.63;;;7.26;100.00
58295;BME280;45705;55.592;37.460;2023-03-26T13:37:33;97178.06;;;7.32;100.00
58295;BME280;45705;55.592;37.460;2023-03-26T13:47:56;97177.16;;;7.28;100.00
58295;BME280;45705;55.592;37.460;2023-03-26T13:50:27;97182.31;;;7.21;100.00
58295;BME280;45705;55.592;37.460;2023-03-26T13:55:29;97167.44;;;7.15;100.00
58295;BME280;45705;55.592;37.460;2023-03-26T14:00:39;97185.25;;;7.16;100.00
58295;BME280;45705;55.592;37.460;2023-03-26T14:03:14;97182.31;;;7.21;100.00
58295;BME280;45705;55.592;37.460;2023-03-26T14:05:43;97172.97;;;7.18;100.00
58295;BME280;45705;55.592;37.460;2023-03-26T14:10:36;97180.50;;;7.13;100.00
58295;BME280;45705;55.592;37.460;2023-03-26T14:15:49;97183.66;;;7.15;100.00
58295;BME280;45705;55.592;37.460;2023-03-26T14:21:04;97193.91;;;7.09;100.00
58295;BME280;45705;55.592;37.460;2023-03-26T14:44:58;97182.97;;;7.05;100.00
58295;BME280;45705;55.592;37.460;2023-03-26T14:47:27;97179.50;;;6.84;100.00
58295;BME280;45705;55.592;37.460;2023-03-26T14:52:46;97185.47;;;6.77;100.00
58295;BME280;45705;55.592;37.460;2023-03-26T15:05:55;97170.03;;;6.78;100.00
58295;BME280;45705;55.592;37.460;2023-03-26T15:21:37;97166.50;;;6.65;100.00
58295;BME280;45705;55.592;37.460;2023-03-26T15:23:56;97165.31;;;6.75;100.00
58295;BME280;45705;55.592;37.460;2023-03-26T15:29:21;97171.66;;;6.58;100.00
58295;BME280;45705;55.592;37.460;2023-03-26T15:47:32;97171.78;;;6.61;100.00
58295;BME280;45705;55.592;37.460;2023-03-26T15:52:28;97170.31;;;6.85;100.00
58295;BME280;45705;55.592;37.460;2023-03-26T15:55:17;97166.75;;;6.72;100.00
58295;BME280;45705;55.592;37.460;2023-03-26T15:57:54;97174.41;;;7.03;100.00
58295;BME280;45705;55.592;37.460;2023-03-26T16:00:26;97181.03;;;6.73;100.00
58295;BME280;45705;55.592;37.460;2023-03-26T16:10:56;97181.00;;;6.60;100.00
58295;BME280;45705;55.592;37.460;2023-03-26T16:13:36;97183.78;;;6.52;100.00
58295;BME280;45705;55.592;37.460;2023-03-26T16:26:43;97176.38;;;6.61;100.00
58295;BME280;45705;55.592;37.460;2023-03-26T16:29:21;97182.31;;;6.54;100.00
58295;BME280;45705;55.592;37.460;2023-03-26T16:34:26;97181.41;;;6.50;100.00
58295;BME280;45705;55.592;37.460;2023-03-26T16:36:53;97181.03;;;6.73;100.00
58295;BME280;45705;55.592;37.460;2023-03-26T16:39:38;97182.19;;;6.72;100.00
58295;BME280;45705;55.592;37.460;2023-03-26T16:44:44;97193.75;;;6.51;100.00
58295;BME280;45705;55.592;37.460;2023-03-26T16:47:21;97192.84;;;6.47;100.00
58295;BME280;45705;55.592;37.460;2023-03-26T16:52:38;97184.16;;;6.62;100.00
58295;BME280;45705;55.592;37.460;2023-03-26T17:00:53;97194.22;;;6.53;100.00
58295;BME280;45705;55.592;37.460;2023-03-26T17:12:11;97198.38;;;6.72;100.00
58295;BME280;45705;55.592;37.460;2023-03-26T17:17:06;97193.75;;;6.51;100.00
58295;BME280;45705;55.592;37.460;2023-03-26T17:19:55;97203.91;;;6.54;100.00
58295;BME280;45705;55.592;37.460;2023-03-26T17:22:32;97194.69;;;6.55;100.00
58295;BME280;45705;55.592;37.460;2023-03-26T17:32:56;97202.44;;;6.78;100.00
58295;BME280;45705;55.592;37.460;2023-03-26T17:38:08;97194.66;;;6.97;100.00
58295;BME280;45705;55.592;37.460;2023-03-26T17:43:10;97179.97;;;6.86;100.00
58295;BME280;45705;55.592;37.460;2023-03-26T17:45:39;97185.03;;;6.87;100.00
58295;BME280;45705;55.592;37.460;2023-03-26T17:50:40;97181.06;;;7.06;100.00
58295;BME280;45705;55.592;37.460;2023-03-26T17:53:12;97187.88;;;6.91;100.00
58295;BME280;45705;55.592;37.460;2023-03-26T17:55:42;97190.31;;;6.84;100.00
58295;BME280;45705;55.592;37.460;2023-03-26T18:00:44;97176.91;;;6.75;100.00
58295;BME280;45705;55.592;37.460;2023-03-26T18:05:36;97184.91;;;6.84;100.00
58295;BME280;45705;55.592;37.460;2023-03-26T18:08:12;97179.03;;;6.69;100.00
58295;BME280;45705;55.592;37.460;2023-03-26T18:20:47;97184.91;;;6.84;100.00
58295;BME280;45705;55.592;37.460;2023-03-26T18:23:21;97176.00;;;7.04;100.00
58295;BME280;45705;55.592;37.460;2023-03-26T18:25:54;97181.81;;;6.94;100.00
58295;BME280;45705;55.592;37.460;2023-03-26T18:28:27;97176.00;;;7.17;100.00
58295;BME280;45705;55.592;37.460;2023-03-26T18:30:53;97181.84;;;7.06;100.00
58295;BME280;45705;55.592;37.460;2023-03-26T18:33:18;97175.09;;;7.13;100.00
58295;BME280;45705;55.592;37.460;2023-03-26T18:35:45;97172.84;;;7.15;100.00
58295;BME280;45705;55.592;37.460;2023-03-26T18:38:17;97169.44;;;7.05;100.00
58295;BME280;45705;55.592;37.460;2023-03-26T18:40:44;97168.00;;;7.08;100.00
58295;BME280;45705;55.592;37.460;2023-03-26T18:43:14;97179.94;;;6.74;100.00
58295;BME280;45705;55.592;37.460;2023-03-26T18:45:41;97167.94;;;6.83;100.00
58295;BME280;45705;55.592;37.460;2023-03-26T18:48:15;97178.28;;;6.81;100.00
58295;BME280;45705;55.592;37.460;2023-03-26T18:50:43;97171.69;;;7.03;100.00
58295;BME280;45705;55.592;37.460;2023-03-26T18:53:28;97171.69;;;7.03;100.00
58295;BME280;45705;55.592;37.460;2023-03-26T18:55:54;97176.19;;;6.99;100.00
58295;BME280;45705;55.592;37.460;2023-03-26T19:00:46;97176.50;;;7.31;100.00
58295;BME280;45705;55.592;37.460;2023-03-26T19:03:14;97193.28;;;6.91;100.00
58295;BME280;45705;55.592;37.460;2023-03-26T19:05:42;97184.63;;;6.98;100.00
58295;BME280;45705;55.592;37.460;2023-03-26T19:08:08;97184.50;;;7.27;100.00
58295;BME280;45705;55.592;37.460;2023-03-26T19:10:34;97174.84;;;7.05;100.00
58295;BME280;45705;55.592;37.460;2023-03-26T19:13:01;97174.44;;;7.16;100.00
58295;BME280;45705;55.592;37.460;2023-03-26T19:15:31;97178.25;;;7.15;100.00
58295;BME280;45705;55.592;37.460;2023-03-26T19:17:59;97174.13;;;7.29;100.00
58295;BME280;45705;55.592;37.460;2023-03-26T19:21:04;97173.75;;;7.19;100.00
58295;BME280;45705;55.592;37.460;2023-03-26T19:23:27;97173.13;;;7.34;100.00
58295;BME280;45705;55.592;37.460;2023-03-26T19:25:56;97172.41;;;7.25;100.00
58295;BME280;45705;55.592;37.460;2023-03-26T19:28:25;97172.00;;;7.35;100.00
58295;BME280;45705;55.592;37.460;2023-03-26T19:30:53;97163.19;;;7.26;100.00
58295;BME280;45705;55.592;37.460;2023-03-26T19:33:20;97165.78;;;7.35;100.00
58295;BME280;45705;55.592;37.460;2023-03-26T19:35:55;97169.88;;;7.41;100.00
58295;BME280;45705;55.592;37.460;2023-03-26T19:38:25;97171.16;;;7.10;100.00
58295;BME280;45705;55.592;37.460;2023-03-26T19:40:51;97172.06;;;7.14;100.00
58295;BME280;45705;55.592;37.460;2023-03-26T19:43:18;97174.16;;;6.96;100.00
58295;BME280;45705;55.592;37.460;2023-03-26T19:45:44;97171.25;;;7.01;100.00
58295;BME280;45705;55.592;37.460;2023-03-26T19:48:11;97172.16;;;7.05;100.00
58295;BME280;45705;55.592;37.460;2023-03-26T19:50:40;97172.75;;;6.78;100.00
58295;BME280;45705;55.592;37.460;2023-03-26T19:53:13;97175.63;;;6.73;100.00